Cynthiana, IN (47612)

2:00 AM CDT on September 02, 2014 (GMT -0500)
KINPOSEY2 | Change Station
CLOSE
Current Station
Personal Weather Station
Location: Poseyville, IN
Elevation: 443 ft
Nearby Weather Stations

Elev 443 ft 38.18 °N, 87.79 °W | Updated 2 seconds ago

Partly Cloudy
Partly Cloudy
75.9 °F
Feels Like 78 °F
N
0.0
Wind Variable Wind from SSW
Gusts 2.2 mph

Today
High -- | Low -- °F
--% Chance of Precip.
Yesterday
High -- | Low -- °F
Precip. -- in
6:21 AM 7:18 PM
Waxing Crescent, 48% visible
Pressure 29.94 in
Visibility 10.0 miles
Clouds Clear
Heat Index 78 °F
Dew Point 65 °F
Humidity 70%
Rainfall 0.00 in
Snow Depth Not available.
UV 0 out of 12
Pollen 11.00 out of 12
Air Quality Not available.
Flu Activity Not available.
METAR KEVV 020654Z AUTO 20009KT 10SM CLR 26/22 A2995 RMK AO2 SLP136 T02610217

More Conditions Fewer Conditions

Pressure 29.94 in
Visibility 10.0 miles
Clouds Clear
Heat Index 78 °F
Dew Point 65 °F
Humidity 70%
Rainfall 0.00 in
Snow Depth Not available.
UV 0 out of 12
Pollen 11.00 out of 12
Air Quality Not available.
Flu Activity Not available.
METAR KEVV 020654Z AUTO 20009KT 10SM CLR 26/22 A2995 RMK AO2 SLP136 T02610217

More Conditions Fewer Conditions

10-Day Weather Forecast

Almanac

Astronomy

Sep. 02, 2014 Rise Set
Actual Time 6:21 AM CDT 7:18 PM CDT
Civil Twilight 5:54 AM CDT 7:45 PM CDT
Nautical Twilight 5:22 AM CDT 8:17 PM CDT
Astronomical Twilight 4:49 AM CDT 8:50 PM CDT
Moon 1:58 PM CDT No Moon Set
Length of Visible Light 13h 51m
Length of Day
12h 57m
Tomorrow will be 2m 22s shorter.
Waxing Crescent, 48% of the Moon is Illuminated
Today
Waxing Crescent
Sep 2
First Quarter
Sep 8
Full
Sep 15
Last Quarter
Sep 24
New

Today's Extremes

State Highs State Lows

Community

WunderPhotos

Upload Photos

1,749,589 photos uploaded!

WunderBlogs® & News

Nearby

Snow Depth

Station Depth Elevation
No new snow has been reported.

Earthquake Activity

City Distance Mag. Time & Date
Tiptonville, Tennessee 158 miles 2.9 11:19 PM CDT
2014-08-31
Minimum magnitude displayed is 2.5.

Coastal Water Temperatures

Place Temperature
No Stations Reporting

Nearby Weather Stations